createdAt,value
2023-03-17T00:01:54.720Z,163.40
2023-03-17T00:04:25.059Z,189.13
2023-03-17T00:06:53.376Z,176.60
2023-03-17T00:09:22.913Z,174.97
2023-03-17T00:11:52.632Z,181.53
2023-03-17T00:14:21.355Z,119.07
2023-03-17T00:16:52.016Z,126.37
2023-03-17T00:19:27.557Z,127.40
2023-03-17T00:21:56.249Z,106.00
2023-03-17T00:24:24.485Z,102.77
2023-03-17T00:26:54.285Z,109.67
2023-03-17T00:29:22.467Z,99.97
2023-03-17T00:31:51.220Z,99.77
2023-03-17T00:34:20.368Z,100.50
2023-03-17T00:36:50.657Z,93.20
2023-03-17T00:39:19.630Z,98.60
2023-03-17T00:44:16.302Z,81.03
2023-03-17T00:46:44.751Z,87.90
2023-03-17T00:51:44.991Z,79.23
2023-03-17T00:54:14.523Z,76.57
2023-03-17T00:56:43.799Z,86.47
2023-03-17T00:59:20.608Z,76.80
2023-03-17T01:01:49.333Z,77.43
2023-03-17T01:04:18.153Z,72.40
2023-03-17T01:06:47.035Z,77.60
2023-03-17T01:09:16.685Z,84.00
2023-03-17T01:11:44.900Z,82.37
2023-03-17T01:14:13.988Z,82.73
2023-03-17T01:16:44.823Z,77.47
2023-03-17T01:19:14.394Z,76.63
2023-03-17T01:21:42.888Z,82.93
2023-03-17T01:24:11.107Z,88.63
2023-03-17T01:26:40.242Z,86.57
2023-03-17T01:29:08.810Z,83.20
2023-03-17T01:31:37.434Z,87.57
2023-03-17T01:34:07.158Z,83.97
2023-03-17T01:36:35.752Z,80.27
2023-03-17T01:39:05.394Z,80.63
2023-03-17T01:41:35.567Z,79.77
2023-03-17T01:44:04.197Z,76.80
2023-03-17T01:46:34.174Z,96.63
2023-03-17T01:49:13.311Z,96.20
2023-03-17T01:51:55.432Z,98.37
2023-03-17T01:54:30.032Z,104.20
2023-03-17T01:57:02.186Z,95.63
2023-03-17T01:59:36.000Z,114.40
2023-03-17T02:02:07.969Z,109.00
2023-03-17T02:04:39.290Z,111.97
2023-03-17T02:07:07.777Z,79.07
2023-03-17T02:09:36.426Z,107.37
2023-03-17T02:12:05.792Z,103.47
2023-03-17T02:14:34.163Z,101.60
2023-03-17T02:17:02.662Z,92.03
2023-03-17T02:19:30.876Z,105.30
2023-03-17T02:22:02.574Z,97.33
2023-03-17T02:24:35.699Z,101.27
2023-03-17T02:27:07.999Z,99.90
2023-03-17T02:29:37.936Z,97.23
2023-03-17T02:32:07.292Z,93.50
2023-03-17T02:34:35.750Z,92.60
2023-03-17T02:37:05.785Z,100.37
2023-03-17T02:39:34.021Z,96.40
2023-03-17T02:42:02.197Z,96.73
2023-03-17T02:44:30.371Z,94.00
2023-03-17T02:46:58.581Z,94.10
2023-03-17T02:49:27.308Z,97.43
2023-03-17T02:51:55.580Z,96.87
2023-03-17T02:54:25.115Z,88.00
2023-03-17T02:56:53.275Z,106.60
2023-03-17T02:59:21.457Z,99.33
2023-03-17T03:01:50.712Z,98.93
2023-03-17T03:04:20.276Z,89.67
2023-03-17T03:06:48.722Z,96.17
2023-03-17T03:09:17.842Z,90.80
2023-03-17T03:11:47.706Z,81.93
2023-03-17T03:14:16.353Z,98.73
2023-03-17T03:16:44.719Z,93.70
2023-03-17T03:19:12.902Z,92.90
2023-03-17T03:21:41.499Z,101.27
2023-03-17T03:24:11.002Z,101.90
2023-03-17T03:26:39.213Z,95.57
2023-03-17T03:29:09.079Z,96.10
2023-03-17T03:31:37.251Z,103.77
2023-03-17T03:34:05.945Z,111.70
2023-03-17T03:36:34.111Z,98.87
2023-03-17T03:39:02.253Z,96.53
2023-03-17T03:41:30.754Z,106.90
2023-03-17T03:43:58.938Z,88.37
2023-03-17T03:46:28.786Z,90.93
2023-03-17T03:48:57.115Z,82.70
2023-03-17T03:51:25.285Z,85.97
2023-03-17T03:53:53.535Z,83.17
2023-03-17T03:56:21.730Z,84.90
2023-03-17T03:58:49.926Z,83.50
2023-03-17T04:01:18.874Z,88.97
2023-03-17T04:03:48.505Z,88.50
2023-03-17T04:06:17.357Z,83.40
2023-03-17T04:08:45.898Z,88.07
2023-03-17T04:11:14.185Z,83.83
2023-03-17T04:13:42.366Z,79.23
2023-03-17T04:16:10.607Z,86.90
2023-03-17T04:18:38.814Z,92.87
2023-03-17T04:21:08.703Z,81.00
2023-03-17T04:23:37.098Z,79.47
2023-03-17T04:26:05.930Z,83.13
2023-03-17T04:28:34.099Z,86.90
2023-03-17T04:31:02.261Z,85.00
2023-03-17T04:33:30.661Z,89.40
2023-03-17T04:35:58.917Z,94.13
2023-03-17T04:38:28.510Z,100.93
2023-03-17T04:40:56.677Z,100.40
2023-03-17T04:43:24.891Z,92.63
2023-03-17T04:45:53.269Z,88.43
2023-03-17T04:48:21.652Z,75.17
2023-03-17T04:50:50.166Z,86.80
2023-03-17T04:53:18.318Z,78.97
2023-03-17T04:55:48.163Z,85.67
2023-03-17T04:58:29.872Z,88.80
2023-03-17T05:01:00.268Z,85.73
2023-03-17T05:03:30.153Z,85.83
2023-03-17T05:06:00.155Z,89.37
2023-03-17T05:08:28.599Z,83.87
2023-03-17T05:10:58.442Z,83.93
2023-03-17T05:13:27.706Z,91.93
2023-03-17T05:15:57.015Z,84.83
2023-03-17T05:18:26.509Z,90.40
2023-03-17T05:20:55.589Z,83.40
2023-03-17T05:23:24.676Z,88.13
2023-03-17T05:25:53.816Z,91.93
2023-03-17T05:28:24.821Z,78.30
2023-03-17T05:30:53.376Z,88.57
2023-03-17T05:33:23.119Z,93.57
2023-03-17T05:35:51.461Z,96.03
2023-03-17T05:38:20.038Z,94.57
2023-03-17T05:40:51.424Z,99.57
2023-03-17T05:43:19.822Z,97.10
2023-03-17T05:45:50.608Z,109.43
2023-03-17T05:48:19.303Z,98.50
2023-03-17T05:50:47.468Z,94.73
2023-03-17T05:53:15.782Z,91.83
2023-03-17T05:55:44.021Z,104.60
2023-03-17T05:58:12.848Z,102.90
2023-03-17T06:00:41.031Z,97.13
2023-03-17T06:03:11.186Z,92.90
2023-03-17T06:05:39.339Z,96.93
2023-03-17T06:08:07.830Z,82.93
2023-03-17T06:10:36.268Z,71.20
2023-03-17T06:13:04.622Z,76.60
2023-03-17T06:15:34.386Z,68.20
2023-03-17T06:18:05.146Z,70.97
2023-03-17T06:20:35.195Z,78.40
2023-03-17T06:23:05.637Z,69.87
2023-03-17T06:25:35.178Z,67.97
2023-03-17T06:28:03.834Z,68.07
2023-03-17T06:30:32.862Z,68.63
2023-03-17T06:33:01.674Z,72.17
2023-03-17T06:35:30.506Z,78.47
2023-03-17T06:38:00.944Z,64.73
2023-03-17T06:40:29.528Z,61.37
2023-03-17T06:42:57.678Z,68.30
2023-03-17T06:45:26.036Z,69.00
2023-03-17T06:47:54.212Z,65.07
2023-03-17T06:50:22.376Z,73.57
2023-03-17T06:52:50.665Z,72.30
2023-03-17T06:55:21.338Z,64.60
2023-03-17T06:57:51.186Z,54.03
2023-03-17T07:00:20.988Z,59.97
2023-03-17T07:02:49.620Z,63.23
2023-03-17T07:05:18.009Z,63.10
2023-03-17T07:07:46.429Z,55.73
2023-03-17T07:10:15.830Z,61.67
2023-03-17T07:12:45.786Z,55.07
2023-03-17T07:15:14.026Z,56.87
2023-03-17T07:17:42.641Z,67.90
2023-03-17T07:20:12.005Z,61.73
2023-03-17T07:22:40.293Z,58.37
2023-03-17T07:25:09.758Z,52.43
2023-03-17T07:27:38.000Z,64.60
2023-03-17T07:30:09.338Z,53.07
2023-03-17T07:32:37.706Z,50.70
2023-03-17T07:35:07.398Z,54.80
2023-03-17T07:37:35.568Z,56.23
2023-03-17T07:40:03.813Z,58.67
2023-03-17T07:42:32.266Z,57.50
2023-03-17T07:45:00.456Z,54.83
2023-03-17T07:47:30.002Z,57.73
2023-03-17T07:49:58.173Z,53.23
2023-03-17T07:52:26.313Z,42.17
2023-03-17T07:54:55.943Z,37.00
2023-03-17T07:57:24.200Z,34.23
2023-03-17T07:59:52.435Z,30.67
2023-03-17T08:02:22.650Z,29.30
2023-03-17T08:04:53.945Z,24.03
2023-03-17T08:07:22.209Z,18.90
2023-03-17T08:09:50.509Z,17.80
2023-03-17T08:12:18.684Z,15.50
2023-03-17T08:14:46.944Z,14.90
2023-03-17T08:17:15.461Z,15.57
2023-03-17T08:19:43.811Z,12.50
2023-03-17T08:22:13.564Z,14.43
2023-03-17T08:24:43.153Z,14.27
2023-03-17T08:27:11.508Z,14.57
2023-03-17T08:29:40.333Z,13.90
2023-03-17T08:32:09.534Z,16.57
2023-03-17T08:34:37.892Z,11.77
2023-03-17T08:37:06.705Z,12.93
2023-03-17T08:39:36.515Z,10.80
2023-03-17T08:42:05.016Z,15.10
2023-03-17T08:44:33.287Z,14.30
2023-03-17T08:47:01.594Z,13.03
2023-03-17T08:49:31.094Z,11.03
2023-03-17T08:51:59.693Z,12.80
2023-03-17T08:54:27.961Z,13.73
2023-03-17T08:56:58.816Z,14.13
2023-03-17T08:59:27.052Z,11.63
2023-03-17T09:01:55.789Z,15.80
2023-03-17T09:04:24.124Z,12.37
2023-03-17T09:07:03.312Z,10.17
2023-03-17T09:09:40.253Z,10.77
2023-03-17T09:12:48.477Z,13.00
2023-03-17T09:15:59.206Z,12.27
2023-03-17T09:18:36.614Z,13.27
2023-03-17T09:21:54.655Z,15.37
2023-03-17T09:27:35.772Z,13.23
2023-03-17T09:30:17.142Z,10.53
2023-03-17T09:33:24.836Z,15.73
2023-03-17T09:35:57.833Z,14.70
2023-03-17T09:41:58.487Z,11.63
2023-03-17T09:44:56.578Z,14.67
2023-03-17T09:47:56.748Z,11.43
2023-03-17T09:50:33.559Z,9.83
2023-03-17T09:53:19.600Z,11.17
2023-03-17T09:56:12.937Z,10.57
2023-03-17T09:59:20.906Z,10.57
2023-03-17T10:04:45.778Z,12.80
2023-03-17T10:07:52.164Z,14.47
2023-03-17T10:10:28.904Z,9.77
2023-03-17T10:13:04.453Z,10.10
2023-03-17T10:15:38.444Z,11.80
2023-03-17T10:18:14.503Z,17.43
2023-03-17T10:20:51.941Z,14.40
2023-03-17T10:23:24.985Z,12.17
2023-03-17T10:25:54.975Z,13.37
2023-03-17T10:28:28.841Z,13.87
2023-03-17T10:31:17.407Z,9.43
2023-03-17T10:33:52.280Z,11.20
2023-03-17T10:36:36.361Z,8.30
2023-03-17T10:39:05.442Z,10.20
2023-03-17T10:41:36.218Z,7.13
2023-03-17T10:44:10.576Z,8.47
2023-03-17T10:46:40.256Z,10.57
2023-03-17T10:49:17.239Z,9.07
2023-03-17T10:51:47.753Z,12.20
2023-03-17T10:54:19.265Z,11.10
2023-03-17T10:56:50.498Z,8.47
2023-03-17T10:59:21.211Z,7.70
2023-03-17T11:01:54.451Z,7.17
2023-03-17T11:04:31.325Z,9.40
2023-03-17T11:07:01.056Z,9.13
2023-03-17T11:09:35.101Z,9.50
2023-03-17T11:12:06.455Z,13.97
2023-03-17T11:14:35.590Z,8.13
2023-03-17T11:17:13.078Z,12.23
2023-03-17T11:19:50.250Z,8.73
2023-03-17T11:22:24.203Z,11.43
2023-03-17T11:25:00.806Z,11.23
2023-03-17T11:27:33.894Z,11.43
2023-03-17T11:30:16.699Z,10.93
2023-03-17T11:32:51.439Z,8.30
2023-03-17T11:35:39.125Z,9.20
2023-03-17T11:38:25.990Z,9.33
2023-03-17T11:41:15.536Z,9.67
2023-03-17T11:44:03.042Z,11.07
2023-03-17T11:46:37.290Z,9.70
2023-03-17T11:49:12.333Z,13.43
2023-03-17T11:51:53.465Z,11.13
2023-03-17T11:54:27.942Z,11.00
2023-03-17T11:56:59.903Z,10.00
2023-03-17T11:59:34.771Z,10.57
2023-03-17T12:02:15.285Z,13.37
2023-03-17T12:04:53.226Z,9.40
2023-03-17T12:07:26.560Z,10.73
2023-03-17T12:10:03.063Z,11.43
2023-03-17T12:12:38.156Z,8.60
2023-03-17T12:15:14.749Z,11.97
2023-03-17T12:17:50.088Z,10.27
2023-03-17T12:20:22.652Z,8.60
2023-03-17T12:22:57.880Z,13.90
2023-03-17T12:25:32.746Z,11.67
2023-03-17T12:28:05.073Z,11.90
2023-03-17T12:30:41.108Z,9.83
2023-03-17T12:33:18.840Z,15.10
2023-03-17T12:35:47.061Z,9.70
2023-03-17T12:38:22.499Z,12.07
2023-03-17T12:41:11.993Z,13.50
2023-03-17T12:43:56.970Z,10.10
2023-03-17T12:46:44.014Z,7.90
2023-03-17T12:49:57.525Z,8.33
2023-03-17T12:52:37.525Z,13.30
2023-03-17T12:55:13.313Z,10.60
2023-03-17T12:57:43.702Z,11.17
2023-03-17T13:00:25.260Z,8.90
2023-03-17T13:03:14.600Z,9.77
2023-03-17T13:05:48.179Z,16.00
2023-03-17T13:08:25.408Z,10.27
2023-03-17T13:11:16.983Z,16.10
2023-03-17T13:13:55.959Z,12.60
2023-03-17T13:16:33.406Z,9.97
2023-03-17T13:19:18.671Z,10.23
2023-03-17T13:21:50.006Z,10.13
2023-03-17T13:24:48.283Z,10.90
2023-03-17T13:27:45.395Z,12.47
2023-03-17T13:30:47.060Z,15.73
2023-03-17T13:33:23.736Z,10.77
2023-03-17T13:36:17.728Z,8.77
2023-03-17T13:39:18.967Z,15.47
2023-03-17T13:42:18.627Z,11.03
2023-03-17T13:45:17.973Z,10.90
2023-03-17T13:47:47.217Z,10.00
2023-03-17T13:50:17.850Z,11.10
2023-03-17T13:52:49.794Z,9.35
2023-03-17T13:55:41.548Z,9.63
2023-03-17T13:58:33.212Z,12.07
2023-03-17T14:01:12.544Z,9.83
2023-03-17T14:03:45.805Z,11.67
2023-03-17T14:06:15.039Z,9.53
2023-03-17T14:08:48.423Z,11.02
2023-03-17T14:11:28.012Z,15.30
2023-03-17T14:14:31.443Z,10.57
2023-03-17T14:17:08.162Z,12.02
2023-03-17T14:19:41.407Z,13.20
2023-03-17T14:22:23.814Z,10.80
2023-03-17T14:24:55.971Z,9.47
2023-03-17T14:27:25.484Z,11.07
2023-03-17T14:29:54.006Z,9.98
2023-03-17T14:32:26.491Z,14.63
2023-03-17T14:34:59.798Z,9.80
2023-03-17T14:37:29.039Z,12.43
2023-03-17T14:39:58.934Z,16.47
2023-03-17T14:42:28.669Z,13.87
2023-03-17T14:45:04.224Z,9.73
2023-03-17T14:47:39.728Z,14.60
2023-03-17T14:50:17.135Z,13.38
2023-03-17T14:52:45.899Z,11.48
2023-03-17T14:55:16.012Z,12.80
2023-03-17T14:57:49.213Z,11.02
2023-03-17T15:00:31.998Z,10.40
2023-03-17T15:03:05.253Z,8.97
2023-03-17T15:05:40.393Z,10.33
2023-03-17T15:08:46.296Z,12.17
2023-03-17T15:11:23.965Z,11.73
2023-03-17T15:13:57.065Z,14.87
2023-03-17T15:16:29.436Z,9.57
2023-03-17T15:19:06.225Z,18.77
2023-03-17T15:21:36.843Z,14.73
2023-03-17T15:24:24.314Z,14.03
2023-03-17T15:26:59.451Z,11.77
2023-03-17T15:29:27.713Z,9.57
2023-03-17T15:32:02.949Z,10.00
2023-03-17T15:34:32.534Z,18.25
2023-03-17T15:37:01.007Z,14.97
2023-03-17T15:39:29.197Z,16.63
2023-03-17T15:41:57.402Z,12.70
2023-03-17T15:44:26.070Z,14.38
2023-03-17T15:46:54.439Z,18.07
2023-03-17T15:49:24.729Z,14.87
2023-03-17T15:51:55.417Z,15.17
2023-03-17T15:54:23.626Z,20.67
2023-03-17T15:56:52.068Z,16.20
2023-03-17T15:59:20.549Z,18.77
2023-03-17T16:01:48.861Z,18.20
2023-03-17T16:04:17.991Z,17.50
2023-03-17T16:06:48.109Z,16.00
2023-03-17T16:09:18.911Z,13.30
2023-03-17T16:11:47.194Z,18.23
2023-03-17T16:14:15.370Z,17.50
2023-03-17T16:16:46.020Z,15.47
2023-03-17T16:19:47.370Z,18.60
2023-03-17T16:22:43.990Z,23.10
2023-03-17T16:25:36.963Z,16.30
2023-03-17T16:28:20.443Z,19.00
2023-03-17T16:30:49.926Z,16.27
2023-03-17T16:33:20.724Z,17.77
2023-03-17T16:35:49.915Z,18.97
2023-03-17T16:38:19.920Z,22.37
2023-03-17T16:40:51.731Z,24.23
2023-03-17T16:43:25.565Z,16.77
2023-03-17T16:45:55.788Z,16.70
2023-03-17T16:48:24.436Z,23.53
2023-03-17T16:50:52.912Z,23.00
2023-03-17T16:53:21.091Z,22.43
2023-03-17T16:55:51.730Z,16.00
2023-03-17T16:58:22.205Z,17.70
2023-03-17T17:00:54.964Z,16.43
2023-03-17T17:03:38.052Z,19.10
2023-03-17T17:06:07.353Z,14.73
2023-03-17T17:11:24.904Z,19.63
2023-03-17T17:13:53.224Z,26.60
2023-03-17T17:16:26.600Z,26.47
2023-03-17T17:19:05.562Z,30.50
2023-03-17T17:21:55.717Z,27.40
2023-03-17T17:24:29.744Z,25.73
2023-03-17T17:27:04.419Z,28.77
2023-03-17T17:29:37.084Z,26.00
2023-03-17T17:32:05.821Z,24.77
2023-03-17T17:34:33.954Z,27.93
2023-03-17T17:37:02.128Z,29.40
2023-03-17T17:39:30.614Z,28.03
2023-03-17T17:42:00.170Z,26.60
2023-03-17T17:44:35.032Z,33.87
2023-03-17T17:47:04.277Z,30.50
2023-03-17T17:49:32.506Z,28.17
2023-03-17T17:52:00.750Z,23.73
2023-03-17T17:54:39.314Z,26.00
2023-03-17T17:57:13.597Z,22.40
2023-03-17T17:59:42.307Z,25.10
2023-03-17T18:02:28.271Z,20.27
2023-03-17T18:04:59.039Z,24.67
2023-03-17T18:07:27.260Z,19.00
2023-03-17T18:09:55.419Z,16.00
2023-03-17T18:12:25.157Z,19.70
2023-03-17T18:14:54.438Z,18.70
2023-03-17T18:17:22.808Z,17.47
2023-03-17T18:19:54.609Z,22.80
2023-03-17T18:22:23.376Z,26.70
2023-03-17T18:24:51.727Z,18.43
2023-03-17T18:27:22.243Z,16.93
2023-03-17T18:29:54.226Z,17.13
2023-03-17T18:32:24.510Z,17.43
2023-03-17T18:34:52.982Z,22.60
2023-03-17T18:37:21.129Z,18.67
2023-03-17T18:40:09.745Z,19.83
2023-03-17T18:42:37.533Z,22.63
2023-03-17T18:45:09.751Z,21.03
2023-03-17T18:47:41.866Z,18.63
2023-03-17T18:50:12.224Z,22.30
2023-03-17T18:52:42.613Z,20.57
2023-03-17T18:55:12.400Z,20.87
2023-03-17T18:57:43.909Z,20.20
2023-03-17T19:00:18.845Z,23.07
2023-03-17T19:02:47.371Z,20.93
2023-03-17T19:05:16.614Z,26.40
2023-03-17T19:07:44.815Z,23.57
2023-03-17T19:10:14.398Z,26.77
2023-03-17T19:12:42.848Z,24.80
2023-03-17T19:15:12.633Z,26.37
2023-03-17T19:17:43.041Z,25.60
2023-03-17T19:20:13.174Z,27.80
2023-03-17T19:22:41.686Z,26.50
2023-03-17T19:25:11.372Z,23.73
2023-03-17T19:27:40.213Z,23.57
2023-03-17T19:30:09.591Z,23.50
2023-03-17T19:32:37.780Z,20.60
2023-03-17T19:35:08.673Z,24.57
2023-03-17T19:37:39.188Z,25.93
2023-03-17T19:40:10.248Z,23.57
2023-03-17T19:42:38.468Z,23.77
2023-03-17T19:45:07.974Z,22.63
2023-03-17T19:47:36.258Z,22.70
2023-03-17T19:50:07.071Z,20.30
2023-03-17T19:52:37.434Z,21.73
2023-03-17T19:55:08.358Z,21.57
2023-03-17T19:57:36.649Z,20.40
2023-03-17T20:00:08.900Z,18.17
2023-03-17T20:02:37.503Z,20.10
2023-03-17T20:05:06.605Z,19.83
2023-03-17T20:07:36.708Z,19.53
2023-03-17T20:10:06.642Z,21.20
2023-03-17T20:12:37.510Z,21.37
2023-03-17T20:15:06.875Z,21.13
2023-03-17T20:17:36.786Z,18.90
2023-03-17T20:20:06.486Z,21.07
2023-03-17T20:22:37.232Z,19.87
2023-03-17T20:25:06.802Z,21.07
2023-03-17T20:27:36.051Z,19.23
2023-03-17T20:30:04.649Z,22.33
2023-03-17T20:32:32.856Z,19.87
2023-03-17T20:35:01.132Z,17.03
2023-03-17T20:37:31.582Z,23.47
2023-03-17T20:40:02.834Z,17.80
2023-03-17T20:42:30.974Z,17.13
2023-03-17T20:44:59.971Z,26.13
2023-03-17T20:47:31.394Z,18.67
2023-03-17T20:50:00.632Z,19.70
2023-03-17T20:52:30.267Z,20.87
2023-03-17T20:55:00.491Z,21.57
2023-03-17T20:57:28.829Z,20.47
2023-03-17T20:59:58.111Z,19.97
2023-03-17T21:02:26.700Z,20.33
2023-03-17T21:04:55.998Z,18.87
2023-03-17T21:07:24.318Z,27.63
2023-03-17T21:09:56.453Z,21.97
2023-03-17T21:12:26.207Z,17.17
2023-03-17T21:14:54.352Z,17.93
2023-03-17T21:17:22.849Z,22.80
2023-03-17T21:19:51.029Z,23.73
2023-03-17T21:22:19.602Z,23.00
2023-03-17T21:24:48.085Z,20.47
2023-03-17T21:27:17.243Z,19.60
2023-03-17T21:29:48.123Z,21.27
2023-03-17T21:32:16.291Z,21.33
2023-03-17T21:34:44.948Z,26.60
2023-03-17T21:37:13.083Z,17.50
2023-03-17T21:39:41.220Z,20.57
2023-03-17T21:42:12.269Z,22.57
2023-03-17T21:44:40.581Z,19.40
2023-03-17T21:47:10.158Z,17.43
2023-03-17T21:49:38.913Z,19.03
2023-03-17T21:52:07.318Z,19.23
2023-03-17T21:54:36.238Z,21.73
2023-03-17T21:57:04.925Z,25.23
2023-03-17T21:59:35.660Z,18.63
2023-03-17T22:02:04.041Z,14.87
2023-03-17T22:04:33.813Z,17.53
2023-03-17T22:07:04.405Z,20.87
2023-03-17T22:09:32.675Z,19.57
2023-03-17T22:12:00.838Z,21.20
2023-03-17T22:14:29.022Z,22.00
2023-03-17T22:16:57.387Z,18.33
2023-03-17T22:19:25.621Z,16.23
2023-03-17T22:21:55.273Z,18.43
2023-03-17T22:24:23.412Z,20.40
2023-03-17T22:26:51.554Z,21.20
2023-03-17T22:29:19.981Z,17.70
2023-03-17T22:31:48.286Z,19.77
2023-03-17T22:34:17.375Z,17.07
2023-03-17T22:36:48.636Z,18.83
2023-03-17T22:39:18.591Z,17.60
2023-03-17T22:41:46.952Z,18.07
2023-03-17T22:44:15.208Z,15.20
2023-03-17T22:46:43.412Z,16.73
2023-03-17T22:49:11.616Z,17.87
2023-03-17T22:51:41.348Z,17.80
2023-03-17T22:54:11.356Z,21.20
2023-03-17T22:56:41.015Z,18.97
2023-03-17T22:59:09.230Z,15.83
2023-03-17T23:01:37.524Z,16.87
2023-03-17T23:04:06.494Z,18.07
2023-03-17T23:06:35.973Z,16.63
2023-03-17T23:09:04.812Z,15.43
2023-03-17T23:11:33.232Z,18.57
2023-03-17T23:14:02.850Z,21.13
2023-03-17T23:16:31.279Z,16.40
2023-03-17T23:19:07.324Z,20.83
2023-03-17T23:21:38.528Z,15.80
2023-03-17T23:24:08.744Z,16.00
2023-03-17T23:26:37.754Z,17.10
2023-03-17T23:29:16.414Z,16.50
2023-03-17T23:31:44.846Z,16.07
2023-03-17T23:34:12.988Z,20.97
2023-03-17T23:36:41.126Z,18.13
2023-03-17T23:39:09.789Z,14.90
2023-03-17T23:41:38.124Z,14.13
2023-03-17T23:44:06.592Z,22.37
2023-03-17T23:46:36.609Z,14.07
2023-03-17T23:49:04.978Z,15.57
2023-03-17T23:51:33.498Z,17.37
2023-03-17T23:54:01.761Z,13.83
2023-03-17T23:56:29.922Z,15.23
2023-03-17T23:58:58.075Z,13.47
